Time;durP1;ratioP1;P1;durP2;ratioP2;P2;SDS_P1;SDS_P2;PMS_P1;PMS_P2;Temp;Humidity;BMP_temperature;BMP_pressure;BME280_temperature;BME280_humidity;BME280_pressure;Samples;Min_cycle;Max_cycle;Signal;HPM_P1;HPM_P2
2024/04/11 00:00:48;;;;;;;5.53;2.40;;;10.60;99.90;;;;;;5337276;26;20367;-73
2024/04/11 00:03:16;;;;;;;4.93;2.47;;;10.60;99.90;;;;;;5336117;26;20292;-72
2024/04/11 00:05:42;;;;;;;5.50;2.27;;;10.60;99.90;;;;;;5305787;26;20256;-73
2024/04/11 00:08:08;;;;;;;5.00;2.07;;;10.50;99.90;;;;;;5335099;26;20336;-73
2024/04/11 00:10:33;;;;;;;5.17;2.33;;;10.40;99.90;;;;;;5340812;26;20239;-73
2024/04/11 00:12:59;;;;;;;4.37;2.63;;;10.30;99.90;;;;;;5318996;26;20243;-73
2024/04/11 00:15:24;;;;;;;5.20;2.43;;;10.20;99.90;;;;;;5342445;26;20270;-73
2024/04/11 00:17:50;;;;;;;4.40;2.43;;;10.20;99.90;;;;;;5342239;26;20542;-74
2024/04/11 00:20:16;;;;;;;3.17;2.13;;;10.30;99.90;;;;;;5311619;26;20405;-72
2024/04/11 00:22:41;;;;;;;5.83;2.33;;;10.30;99.90;;;;;;5334207;26;20258;-73
2024/04/11 00:25:07;;;;;;;4.10;2.40;;;10.30;99.90;;;;;;5328408;26;20367;-75
2024/04/11 00:27:36;;;;;;;3.47;2.37;;;10.40;99.90;;;;;;5326769;26;20283;-73
2024/04/11 00:30:02;;;;;;;5.90;2.77;;;10.30;99.90;;;;;;5355213;26;20239;-73
2024/04/11 00:32:28;;;;;;;6.47;2.60;;;10.30;99.90;;;;;;5348904;26;20254;-74
2024/04/11 00:34:53;;;;;;;7.43;2.30;;;10.40;99.90;;;;;;5326184;26;20815;-74
2024/04/11 00:37:22;;;;;;;4.20;2.23;;;10.40;99.90;;;;;;5311439;26;20656;-73
2024/04/11 00:39:48;;;;;;;5.57;2.80;;;10.30;99.90;;;;;;5331889;26;20270;-73
2024/04/11 00:42:13;;;;;;;6.40;2.50;;;10.30;99.90;;;;;;5334287;26;20239;-73
2024/04/11 00:44:39;;;;;;;5.57;2.60;;;10.30;99.90;;;;;;5332979;26;20250;-72
2024/04/11 00:47:09;;;;;;;5.17;2.87;;;10.20;99.90;;;;;;5345532;26;20674;-73
2024/04/11 00:49:36;;;;;;;5.50;3.10;;;10.20;99.90;;;;;;5354627;26;20442;-73
2024/04/11 00:52:03;;;;;;;3.30;2.60;;;10.20;99.90;;;;;;5308868;26;20295;-72
2024/04/11 00:54:29;;;;;;;4.07;2.80;;;10.20;99.90;;;;;;5328037;26;20418;-74
2024/04/11 00:56:59;;;;;;;5.13;3.00;;;10.10;99.90;;;;;;5345569;26;20276;-72
2024/04/11 00:59:25;;;;;;;5.67;3.13;;;10.00;99.90;;;;;;5343898;26;20247;-72
2024/04/11 01:01:51;;;;;;;8.47;2.87;;;9.90;99.90;;;;;;5343312;26;20886;-72
2024/04/11 01:04:17;;;;;;;2.90;2.33;;;9.90;99.90;;;;;;5321626;26;20362;-72
2024/04/11 01:09:46;;;;;;;7.77;2.33;;;9.80;99.90;;;;;;5313793;26;20630;-74
2024/04/11 01:12:16;;;;;;;8.60;2.37;;;9.70;99.90;;;;;;5372042;26;20341;-72
2024/04/11 01:14:44;;;;;;;5.87;2.50;;;9.60;99.90;;;;;;5337551;26;20238;-73
2024/04/11 01:17:14;;;;;;;4.00;2.57;;;9.50;99.90;;;;;;5344340;26;20610;-74
2024/04/11 01:19:40;;;;;;;5.20;2.50;;;9.50;99.90;;;;;;5314045;26;20236;-73
2024/04/11 01:22:06;;;;;;;6.80;3.00;;;9.50;99.90;;;;;;5336759;26;20611;-73
2024/04/11 01:24:34;;;;;;;4.80;3.00;;;9.30;99.90;;;;;;5311683;26;20244;-72
2024/04/11 01:27:00;;;;;;;3.50;2.30;;;9.30;99.90;;;;;;5314266;26;20285;-72
2024/04/11 01:29:26;;;;;;;6.83;2.30;;;9.40;99.90;;;;;;5331593;26;20276;-72
2024/04/11 01:31:58;;;;;;;5.23;2.80;;;9.40;99.90;;;;;;5329979;26;20310;-72
2024/04/11 01:34:24;;;;;;;4.60;2.53;;;9.50;99.90;;;;;;5352577;26;20239;-72
2024/04/11 01:36:50;;;;;;;4.93;2.87;;;9.40;99.90;;;;;;5343957;26;20247;-72
2024/04/11 01:39:15;;;;;;;6.20;2.33;;;9.40;99.90;;;;;;5366479;26;20246;-75
2024/04/11 01:41:41;;;;;;;3.83;2.60;;;9.30;99.90;;;;;;5307249;26;20274;-72
2024/04/11 01:44:06;;;;;;;4.07;2.53;;;9.20;99.90;;;;;;5310821;26;20275;-73
2024/04/11 01:46:32;;;;;;;4.93;2.47;;;9.20;99.90;;;;;;5332637;26;20234;-73
2024/04/11 01:48:59;;;;;;;3.63;3.10;;;9.20;99.90;;;;;;5345661;26;20629;-73
2024/04/11 01:51:25;;;;;;;5.23;2.50;;;9.20;99.90;;;;;;5345291;26;20246;-75
2024/04/11 01:53:51;;;;;;;6.30;2.87;;;9.20;99.90;;;;;;5358521;26;20259;-72
2024/04/11 01:56:16;;;;;;;7.87;2.73;;;9.20;99.90;;;;;;5352377;26;20696;-73
2024/04/11 01:58:42;;;;;;;3.03;2.73;;;9.20;99.90;;;;;;5344639;26;20247;-73
2024/04/11 02:01:12;;;;;;;5.43;3.33;;;9.10;99.90;;;;;;5344574;26;20246;-72
2024/04/11 02:03:43;;;;;;;6.17;2.83;;;9.10;99.90;;;;;;5337945;26;20237;-74
2024/04/11 02:06:11;;;;;;;6.37;3.10;;;9.10;99.90;;;;;;5361138;26;20246;-73
2024/04/11 02:08:37;;;;;;;5.07;2.50;;;9.10;99.90;;;;;;5305366;26;20239;-72
2024/04/11 02:11:04;;;;;;;5.17;2.97;;;9.20;99.90;;;;;;5324992;26;20277;-72
2024/04/11 02:13:30;;;;;;;7.57;3.23;;;9.10;99.90;;;;;;5319165;26;20231;-74
2024/04/11 02:15:56;;;;;;;6.27;3.17;;;9.20;99.90;;;;;;5329594;26;20587;-73
2024/04/11 02:18:21;;;;;;;6.17;2.80;;;9.30;99.90;;;;;;5372385;26;20266;-73
2024/04/11 02:20:53;;;;;;;3.33;2.70;;;9.30;99.90;;;;;;5316440;26;20243;-74
2024/04/11 02:23:18;;;;;;;5.37;3.10;;;9.30;99.90;;;;;;5309925;26;20282;-71
2024/04/11 02:25:44;;;;;;;4.03;2.83;;;9.20;99.90;;;;;;5334265;26;20246;-72
2024/04/11 02:28:10;;;;;;;9.17;3.03;;;9.30;99.90;;;;;;5343756;26;20238;-73
2024/04/11 02:30:36;;;;;;;6.27;2.87;;;9.30;99.90;;;;;;5330122;26;20243;-73
2024/04/11 02:33:01;;;;;;;5.50;2.30;;;9.40;99.90;;;;;;5332373;26;20277;-73
2024/04/11 02:35:27;;;;;;;6.50;2.43;;;9.40;99.90;;;;;;5309168;26;20347;-72
2024/04/11 02:37:54;;;;;;;7.43;2.80;;;9.40;99.90;;;;;;5328960;26;20291;-72
2024/04/11 02:40:20;;;;;;;5.50;2.93;;;9.40;99.90;;;;;;5346663;26;20238;-74
2024/04/11 02:42:46;;;;;;;5.10;2.63;;;9.40;99.90;;;;;;5338843;26;20239;-73
2024/04/11 02:45:15;;;;;;;8.47;2.40;;;9.40;99.90;;;;;;5344127;26;20250;-72
2024/04/11 02:47:41;;;;;;;5.20;2.50;;;9.30;99.90;;;;;;5303523;26;20389;-73
2024/04/11 02:50:09;;;;;;;4.77;2.23;;;9.30;99.90;;;;;;5307586;26;20319;-73
2024/04/11 02:52:36;;;;;;;6.80;3.13;;;9.30;99.90;;;;;;5320119;26;20302;-73
2024/04/11 02:55:04;;;;;;;3.20;2.30;;;9.30;99.90;;;;;;5300970;26;20573;-71
2024/04/11 02:57:31;;;;;;;5.27;2.70;;;9.30;99.90;;;;;;5342398;26;20299;-72
2024/04/11 02:59:57;;;;;;;4.23;2.57;;;9.30;99.90;;;;;;5332273;26;20338;-74
2024/04/11 03:02:24;;;;;;;7.30;2.80;;;9.30;99.90;;;;;;5360665;26;20378;-73
2024/04/11 03:04:52;;;;;;;4.30;3.13;;;9.30;99.90;;;;;;5321769;26;20247;-71
2024/04/11 03:07:19;;;;;;;7.90;2.97;;;9.20;99.90;;;;;;5307616;26;20370;-73
2024/04/11 03:09:44;;;;;;;8.80;3.47;;;9.30;99.90;;;;;;5340632;26;20322;-73
2024/04/11 03:12:10;;;;;;;7.70;3.63;;;9.30;99.90;;;;;;5318409;26;20240;-73
2024/04/11 03:14:36;;;;;;;6.37;3.17;;;9.20;99.90;;;;;;5322602;26;20702;-74
2024/04/11 03:17:04;;;;;;;7.23;3.17;;;9.20;99.90;;;;;;5313886;26;20295;-73
2024/04/11 03:19:30;;;;;;;4.80;2.80;;;9.20;99.90;;;;;;5319878;26;20305;-74
2024/04/11 03:21:56;;;;;;;8.60;3.13;;;9.30;99.90;;;;;;5343244;26;20235;-73
2024/04/11 03:24:22;;;;;;;5.27;2.60;;;9.20;99.90;;;;;;5338594;26;20281;-73
2024/04/11 03:26:48;;;;;;;7.77;3.10;;;9.10;99.90;;;;;;5340114;26;20288;-73
2024/04/11 03:29:15;;;;;;;5.07;3.20;;;9.10;99.90;;;;;;5348681;26;20290;-72
2024/04/11 03:31:44;;;;;;;8.30;3.43;;;9.20;99.90;;;;;;5302889;26;20715;-72
2024/04/11 03:34:09;;;;;;;13.60;2.93;;;9.10;99.90;;;;;;5307873;26;20683;-72
2024/04/11 03:36:35;;;;;;;3.90;2.30;;;9.00;99.90;;;;;;5339585;26;20274;-72
2024/04/11 03:39:01;;;;;;;6.90;3.10;;;9.00;99.90;;;;;;5332930;26;20249;-71
2024/04/11 03:41:27;;;;;;;7.43;2.53;;;9.00;99.90;;;;;;5319897;26;20281;-73
2024/04/11 03:43:54;;;;;;;8.53;3.00;;;9.10;99.90;;;;;;5310368;26;20251;-72
2024/04/11 03:46:21;;;;;;;4.70;2.40;;;9.20;99.90;;;;;;5322039;26;20354;-72
2024/04/11 03:48:55;;;;;;;5.63;2.30;;;9.40;99.90;;;;;;5344677;26;20242;-73
2024/04/11 03:51:24;;;;;;;4.47;2.43;;;9.50;99.90;;;;;;5346526;26;20276;-72
2024/04/11 03:53:51;;;;;;;3.93;2.37;;;9.70;99.90;;;;;;5379265;26;20280;-73
2024/04/11 03:56:20;;;;;;;7.97;2.80;;;9.70;99.90;;;;;;5321209;26;20278;-72
2024/04/11 03:58:47;;;;;;;3.77;2.37;;;9.60;99.90;;;;;;5310608;26;20313;-71
2024/04/11 04:01:13;;;;;;;9.73;2.90;;;9.50;99.90;;;;;;5318169;26;20728;-70
2024/04/11 04:03:42;;;;;;;6.13;2.67;;;9.30;99.90;;;;;;5376949;26;20285;-71
2024/04/11 04:06:10;;;;;;;6.00;3.17;;;9.20;99.90;;;;;;5348060;26;20250;-72
2024/04/11 04:08:37;;;;;;;4.03;2.40;;;9.10;99.90;;;;;;5347306;26;20343;-72
2024/04/11 04:11:03;;;;;;;2.60;2.20;;;9.00;99.90;;;;;;5319002;26;20791;-72
2024/04/11 04:13:28;;;;;;;5.93;2.23;;;9.10;99.90;;;;;;5320481;26;20321;-71
2024/04/11 04:15:55;;;;;;;7.07;2.20;;;9.10;99.90;;;;;;5343789;26;20372;-72
2024/04/11 04:18:21;;;;;;;3.57;1.97;;;9.10;99.90;;;;;;5313172;26;20247;-72
2024/04/11 04:20:57;;;;;;;7.87;2.60;;;9.10;99.90;;;;;;5330961;26;20238;-71
2024/04/11 04:23:23;;;;;;;3.80;2.20;;;9.00;99.90;;;;;;5345022;26;20300;-71
2024/04/11 04:25:59;;;;;;;5.23;2.30;;;9.00;99.90;;;;;;5312583;26;20282;-73
2024/04/11 04:28:26;;;;;;;3.70;1.70;;;8.90;99.90;;;;;;5322891;26;20243;-72
2024/04/11 04:30:52;;;;;;;8.10;2.37;;;8.70;99.90;;;;;;5344921;26;20337;-72
2024/04/11 04:33:17;;;;;;;4.80;2.60;;;8.70;99.90;;;;;;5346776;26;20246;-73
2024/04/11 04:35:43;;;;;;;4.83;2.60;;;8.80;99.90;;;;;;5317512;26;20293;-73
2024/04/11 04:38:10;;;;;;;4.20;2.50;;;8.70;99.90;;;;;;5312141;26;20587;-73
2024/04/11 04:40:36;;;;;;;7.00;2.90;;;8.60;99.90;;;;;;5328230;26;20239;-72
2024/04/11 04:43:02;;;;;;;5.23;2.50;;;8.60;99.90;;;;;;5346691;26;20628;-73
2024/04/11 04:45:28;;;;;;;3.93;2.40;;;8.60;99.90;;;;;;5351218;26;20231;-73
2024/04/11 04:47:53;;;;;;;4.17;2.70;;;8.60;99.90;;;;;;5345417;26;20280;-72
2024/04/11 04:50:19;;;;;;;7.40;2.53;;;8.60;99.90;;;;;;5302141;26;20318;-72
2024/04/11 04:52:44;;;;;;;8.70;2.73;;;8.60;99.90;;;;;;5326266;26;20256;-72
2024/04/11 04:55:10;;;;;;;3.97;2.67;;;8.60;99.90;;;;;;5373243;26;20763;-72
2024/04/11 04:57:36;;;;;;;4.97;2.40;;;8.60;99.90;;;;;;5335461;26;20284;-72
2024/04/11 05:00:03;;;;;;;5.40;2.80;;;8.50;99.90;;;;;;5343354;26;20277;-72
2024/04/11 05:02:31;;;;;;;5.03;2.27;;;8.50;99.90;;;;;;5346154;26;20640;-72
2024/04/11 05:04:57;;;;;;;8.33;2.90;;;8.50;99.90;;;;;;5328039;26;20303;-72
2024/04/11 05:07:24;;;;;;;9.90;2.83;;;8.60;99.90;;;;;;5332657;26;20233;-73
2024/04/11 05:09:50;;;;;;;8.30;2.73;;;8.60;99.90;;;;;;5331032;26;20642;-73
2024/04/11 05:12:15;;;;;;;12.43;3.30;;;8.70;99.90;;;;;;5368857;21;20274;-72
2024/04/11 05:14:45;;;;;;;8.77;2.93;;;8.70;99.90;;;;;;5345867;26;20857;-72
2024/04/11 05:17:11;;;;;;;4.47;2.70;;;8.70;99.90;;;;;;5346781;26;20275;-70
2024/04/11 05:19:37;;;;;;;6.07;2.70;;;8.80;99.90;;;;;;5348008;26;20250;-73
2024/04/11 05:22:08;;;;;;;9.03;3.43;;;9.00;99.90;;;;;;5347398;26;20237;-73
2024/04/11 05:24:35;;;;;;;4.67;2.80;;;9.10;99.90;;;;;;5348632;26;20306;-72
2024/04/11 05:27:01;;;;;;;5.93;2.77;;;9.10;99.90;;;;;;5348962;26;20273;-72
2024/04/11 05:29:26;;;;;;;6.13;3.37;;;9.30;99.90;;;;;;5344896;26;20669;-72
2024/04/11 05:31:56;;;;;;;4.73;2.40;;;9.80;99.90;;;;;;5346202;26;20366;-72
2024/04/11 05:34:25;;;;;;;5.95;2.80;;;10.30;99.90;;;;;;5345730;26;20288;-73
2024/04/11 05:36:52;;;;;;;6.57;2.97;;;10.80;99.90;;;;;;5351286;26;20310;-72
2024/04/11 05:39:20;;;;;;;5.53;2.90;;;11.30;99.90;;;;;;5360269;26;20296;-73
2024/04/11 05:41:46;;;;;;;7.78;3.20;;;11.60;99.90;;;;;;5359096;26;20289;-73
2024/04/11 05:44:12;;;;;;;6.00;2.85;;;12.10;99.90;;;;;;5346357;26;20321;-74
2024/04/11 05:46:40;;;;;;;7.70;3.33;;;12.40;99.90;;;;;;5352371;26;20231;-73
2024/04/11 05:49:06;;;;;;;7.90;3.30;;;12.70;99.90;;;;;;5347580;26;20282;-72
2024/04/11 05:51:35;;;;;;;5.00;2.92;;;13.00;99.90;;;;;;5346998;26;20622;-72
2024/04/11 05:54:01;;;;;;;6.60;3.20;;;13.50;99.90;;;;;;5345375;26;20791;-73
2024/04/11 05:56:27;;;;;;;11.23;3.53;;;13.90;99.90;;;;;;5346664;26;20321;-73
2024/04/11 05:58:53;;;;;;;9.50;3.38;;;14.20;99.90;;;;;;5344549;26;20243;-73
2024/04/11 06:01:19;;;;;;;8.55;3.40;;;14.70;99.90;;;;;;5348352;26;20236;-73
2024/04/11 06:03:49;;;;;;;10.25;3.22;;;15.10;99.90;;;;;;5346381;26;20336;-74
2024/04/11 06:06:15;;;;;;;9.60;3.90;;;15.60;99.90;;;;;;5351850;26;20239;-73
2024/04/11 06:08:44;;;;;;;11.50;3.28;;;15.50;99.90;;;;;;5347695;26;20289;-73
2024/04/11 06:11:14;;;;;;;8.45;3.35;;;15.70;99.90;;;;;;5344713;26;20363;-72
2024/04/11 06:13:41;;;;;;;7.97;3.55;;;15.20;99.90;;;;;;5346117;26;20238;-73
2024/04/11 06:16:06;;;;;;;6.38;2.90;;;14.60;99.90;;;;;;5346280;26;20281;-72
2024/04/11 06:18:34;;;;;;;7.53;3.55;;;14.70;99.90;;;;;;5346519;26;20230;-73
2024/04/11 06:21:02;;;;;;;5.57;3.10;;;14.60;99.90;;;;;;5346646;26;20729;-72
2024/04/11 06:23:28;;;;;;;10.38;3.67;;;14.30;99.90;;;;;;5345789;26;20748;-73
2024/04/11 06:25:54;;;;;;;8.77;3.75;;;14.50;99.90;;;;;;5345824;26;20243;-72
2024/04/11 06:28:20;;;;;;;6.72;3.30;;;14.80;99.90;;;;;;5346482;26;20266;-72
2024/04/11 06:30:47;;;;;;;8.10;3.40;;;15.00;99.90;;;;;;5346287;26;20239;-72
2024/04/11 06:33:14;;;;;;;13.80;3.40;;;15.10;99.90;;;;;;5346182;26;20273;-73
2024/04/11 06:35:40;;;;;;;7.78;3.05;;;15.00;99.90;;;;;;5344687;26;20243;-72
2024/04/11 06:38:08;;;;;;;10.90;3.50;;;14.90;99.90;;;;;;5346690;26;20289;-73
2024/04/11 06:40:34;;;;;;;5.38;3.30;;;15.10;99.90;;;;;;5346957;26;20293;-73
2024/04/11 06:43:01;;;;;;;7.43;3.63;;;15.20;99.90;;;;;;5346248;26;20600;-72
2024/04/11 06:45:27;;;;;;;9.43;3.63;;;15.20;99.90;;;;;;5346359;26;20374;-72
2024/04/11 06:47:53;;;;;;;9.60;3.65;;;15.30;99.90;;;;;;5346044;26;20725;-72
2024/04/11 06:50:23;;;;;;;10.63;3.75;;;15.50;99.90;;;;;;5344667;26;20235;-73
2024/04/11 06:52:49;;;;;;;6.85;3.92;;;15.30;99.90;;;;;;5343515;26;20247;-74
2024/04/11 06:55:14;;;;;;;8.48;3.55;;;15.40;99.90;;;;;;5349803;26;20235;-73
2024/04/11 06:57:44;;;;;;;5.97;3.92;;;15.40;99.90;;;;;;5354495;26;20593;-72
2024/04/11 07:00:35;;;;;;;5.30;3.15;;;15.40;99.90;;;;;;5349489;26;20231;-72
2024/04/11 07:03:13;;;;;;;7.72;3.47;;;15.60;99.90;;;;;;5344563;26;20242;-72
2024/04/11 07:05:57;;;;;;;11.45;3.88;;;15.80;99.90;;;;;;5347602;26;20238;-73
2024/04/11 07:08:33;;;;;;;5.10;3.42;;;15.40;99.90;;;;;;5346710;26;20321;-72
2024/04/11 07:11:12;;;;;;;9.00;3.70;;;15.50;99.90;;;;;;5345589;26;20234;-74
2024/04/11 07:13:39;;;;;;;9.48;3.80;;;15.40;99.90;;;;;;5345522;26;20243;-73
2024/04/11 07:16:07;;;;;;;7.28;3.75;;;15.60;99.90;;;;;;5343891;26;20246;-74
2024/04/11 07:18:48;;;;;;;6.80;3.03;;;15.80;99.90;;;;;;5350691;26;20609;-72
2024/04/11 07:21:17;;;;;;;5.25;2.88;;;15.90;99.90;;;;;;5351325;26;20697;-73
2024/04/11 07:23:44;;;;;;;7.13;3.25;;;15.90;99.90;;;;;;5347578;26;20634;-74
2024/04/11 07:26:12;;;;;;;6.28;3.22;;;15.80;99.90;;;;;;5360537;26;20302;-73
2024/04/11 07:28:41;;;;;;;4.15;3.05;;;15.80;99.90;;;;;;5346631;26;20274;-72
2024/04/11 07:31:08;;;;;;;7.95;3.47;;;15.90;99.90;;;;;;5345300;26;20305;-71
2024/04/11 07:33:35;;;;;;;7.07;3.30;;;16.20;99.90;;;;;;5346698;26;20269;-72
2024/04/11 07:36:02;;;;;;;6.07;3.17;;;16.20;99.90;;;;;;5347961;26;20227;-73
2024/04/11 07:38:27;;;;;;;6.88;3.35;;;16.30;99.90;;;;;;5344889;26;20284;-72
2024/04/11 07:40:59;;;;;;;8.13;3.58;;;16.20;99.90;;;;;;5345369;26;20231;-72
2024/04/11 07:43:27;;;;;;;7.18;3.53;;;16.30;99.90;;;;;;5344125;26;20247;-73
2024/04/11 07:45:52;;;;;;;9.25;3.65;;;16.40;99.90;;;;;;5351268;26;20227;-72
2024/04/11 07:48:23;;;;;;;7.53;4.10;;;16.20;99.90;;;;;;5346320;26;20235;-72
2024/04/11 07:50:50;;;;;;;11.02;4.35;;;16.30;99.90;;;;;;5344496;26;20410;-72
2024/04/11 07:53:16;;;;;;;7.85;4.32;;;16.40;99.90;;;;;;5343635;26;20243;-72
2024/04/11 07:55:46;;;;;;;12.60;5.00;;;16.40;99.90;;;;;;5344210;26;20783;-73
2024/04/11 07:58:18;;;;;;;10.30;5.30;;;16.50;99.90;;;;;;5345683;26;20281;-73
2024/04/11 08:00:54;;;;;;;14.05;5.28;;;16.60;99.90;;;;;;5354952;26;20286;-72
2024/04/11 08:03:20;;;;;;;10.45;4.15;;;16.80;99.90;;;;;;5345642;26;20281;-73
2024/04/11 08:05:47;;;;;;;11.75;4.50;;;16.90;99.90;;;;;;5344764;26;20235;-73
2024/04/11 08:08:12;;;;;;;7.72;5.00;;;16.90;99.90;;;;;;5344491;26;20676;-73
2024/04/11 08:10:38;;;;;;;9.25;4.85;;;17.10;99.90;;;;;;5344495;26;20231;-73
2024/04/11 08:13:04;;;;;;;13.57;4.40;;;17.20;99.90;;;;;;5344426;26;20795;-73
2024/04/11 08:15:30;;;;;;;10.57;4.38;;;17.20;99.90;;;;;;5344080;26;20247;-73
2024/04/11 08:17:57;;;;;;;14.30;4.38;;;17.40;99.90;;;;;;5344856;26;20281;-73
2024/04/11 08:20:23;;;;;;;9.68;3.95;;;17.50;99.90;;;;;;5342786;26;20242;-73
2024/04/11 08:22:48;;;;;;;8.85;4.15;;;17.60;99.90;;;;;;5346093;26;20273;-73
2024/04/11 08:25:14;;;;;;;10.05;4.05;;;17.90;99.90;;;;;;5347334;26;20235;-73
2024/04/11 08:27:42;;;;;;;12.95;4.47;;;17.90;99.90;;;;;;5349156;26;20750;-74
2024/04/11 08:30:09;;;;;;;9.40;3.65;;;18.10;99.90;;;;;;5353711;26;20277;-73
2024/04/11 08:32:35;;;;;;;5.15;2.83;;;18.20;99.90;;;;;;5347634;26;20697;-73
2024/04/11 08:35:01;;;;;;;10.98;3.03;;;18.30;99.90;;;;;;5345488;26;20239;-72
2024/04/11 08:37:30;;;;;;;6.35;3.20;;;18.30;99.90;;;;;;5345053;26;20301;-73
2024/04/11 08:39:56;;;;;;;8.55;2.80;;;18.30;99.90;;;;;;5345713;26;20243;-73
2024/04/11 08:42:22;;;;;;;7.57;2.83;;;18.40;99.90;;;;;;5346675;26;20243;-72
2024/04/11 08:44:51;;;;;;;7.10;3.10;;;18.50;99.90;;;;;;5347013;26;20231;-73
2024/04/11 08:47:17;;;;;;;7.32;3.08;;;18.40;99.90;;;;;;5349336;26;20235;-72
2024/04/11 08:49:43;;;;;;;6.78;2.83;;;18.40;99.90;;;;;;5347951;26;20235;-74
2024/04/11 08:52:13;;;;;;;7.65;2.97;;;18.50;99.90;;;;;;5346987;26;20243;-74
2024/04/11 08:54:41;;;;;;;5.88;3.38;;;18.50;99.90;;;;;;5350218;26;20328;-72
2024/04/11 08:57:11;;;;;;;7.35;2.15;;;18.70;99.90;;;;;;5351721;26;20247;-73
2024/04/11 08:59:38;;;;;;;7.07;2.10;;;18.80;99.90;;;;;;5347895;26;20235;-72
2024/04/11 09:02:08;;;;;;;8.20;2.53;;;19.10;99.90;;;;;;5346368;26;20247;-72
2024/04/11 09:04:34;;;;;;;5.78;1.80;;;19.20;99.90;;;;;;5344810;26;20239;-72
2024/04/11 09:07:00;;;;;;;3.08;1.50;;;19.30;99.90;;;;;;5345986;26;20281;-72
2024/04/11 09:09:27;;;;;;;5.30;1.48;;;19.40;99.90;;;;;;5347171;26;20265;-72
2024/04/11 09:11:53;;;;;;;3.25;1.27;;;19.40;99.90;;;;;;5350071;26;20333;-72
2024/04/11 09:14:19;;;;;;;5.60;1.83;;;19.40;99.90;;;;;;5353580;26;20310;-73
2024/04/11 09:16:45;;;;;;;5.65;1.40;;;19.40;99.90;;;;;;5349030;26;20285;-72
2024/04/11 09:19:11;;;;;;;3.83;1.50;;;19.20;99.90;;;;;;5345074;26;20274;-73
2024/04/11 09:21:44;;;;;;;2.40;1.33;;;18.90;99.90;;;;;;5345898;26;20287;-72
2024/04/11 09:24:13;;;;;;;1.92;1.30;;;18.70;99.90;;;;;;5346594;26;20238;-73
2024/04/11 09:26:40;;;;;;;4.85;1.35;;;18.70;99.90;;;;;;5347314;26;20661;-72
2024/04/11 09:29:05;;;;;;;3.65;1.20;;;19.00;99.90;;;;;;5348341;26;20771;-73
2024/04/11 09:31:32;;;;;;;3.63;1.67;;;19.20;99.90;;;;;;5346179;26;20235;-72
2024/04/11 09:33:58;;;;;;;4.65;1.30;;;19.20;99.90;;;;;;5357046;26;20264;-73
2024/04/11 09:36:31;;;;;;;3.35;1.40;;;19.50;99.90;;;;;;5349199;26;20294;-72
2024/04/11 09:39:12;;;;;;;4.45;1.88;;;19.70;99.90;;;;;;5346677;26;20234;-73
2024/04/11 09:41:40;;;;;;;4.25;1.40;;;20.00;99.90;;;;;;5350556;26;20288;-73
2024/04/11 09:44:07;;;;;;;5.72;1.85;;;20.10;99.90;;;;;;5346815;26;20281;-73
2024/04/11 09:46:41;;;;;;;4.25;1.40;;;20.00;99.90;;;;;;5347106;26;20238;-72
2024/04/11 09:49:09;;;;;;;5.60;1.58;;;20.00;99.90;;;;;;5349859;26;20262;-73
2024/04/11 09:51:37;;;;;;;5.22;1.77;;;20.10;99.90;;;;;;5344517;26;20658;-73
2024/04/11 09:54:04;;;;;;;5.25;1.60;;;20.20;99.90;;;;;;5349371;26;20250;-73
2024/04/11 09:56:30;;;;;;;4.90;1.40;;;20.40;99.90;;;;;;5350602;26;20239;-72
2024/04/11 09:58:57;;;;;;;7.88;1.75;;;20.50;99.40;;;;;;5347129;26;20277;-73
2024/04/11 10:01:30;;;;;;;6.25;1.63;;;20.50;99.10;;;;;;5345701;26;20332;-73
2024/04/11 10:04:00;;;;;;;2.78;1.25;;;20.40;98.40;;;;;;5349373;26;20329;-74
2024/04/11 10:06:29;;;;;;;4.90;2.03;;;20.50;99.70;;;;;;5347285;26;20285;-72
2024/04/11 10:09:11;;;;;;;4.88;1.20;;;20.60;98.50;;;;;;5345560;26;20298;-74
2024/04/11 10:11:37;;;;;;;5.15;1.20;;;20.70;98.30;;;;;;5345808;26;20293;-72
2024/04/11 10:14:05;;;;;;;3.50;1.10;;;20.80;98.10;;;;;;5360404;26;20235;-73
2024/04/11 10:16:37;;;;;;;4.25;1.13;;;20.80;97.20;;;;;;5345875;26;20239;-73
2024/04/11 10:19:07;;;;;;;4.15;0.98;;;20.80;97.60;;;;;;5344247;26;20242;-73
2024/04/11 10:21:33;;;;;;;3.50;1.08;;;20.70;96.40;;;;;;5345036;26;20682;-72
2024/04/11 10:24:14;;;;;;;2.95;1.25;;;20.60;96.70;;;;;;5346945;26;20326;-73
2024/04/11 10:26:42;;;;;;;4.32;1.27;;;20.60;96.60;;;;;;5348247;26;20262;-73
2024/04/11 10:29:19;;;;;;;2.28;1.60;;;20.60;96.80;;;;;;5348859;26;20238;-73
2024/04/11 10:31:47;;;;;;;3.17;1.10;;;20.90;96.70;;;;;;5348380;26;20298;-72
2024/04/11 10:34:19;;;;;;;2.25;1.10;;;20.90;96.00;;;;;;5346057;26;20331;-73
2024/04/11 10:36:53;;;;;;;2.88;1.05;;;21.00;96.00;;;;;;5344048;26;20246;-73
2024/04/11 10:39:18;;;;;;;4.90;1.42;;;21.00;95.00;;;;;;5345533;26;20728;-73
2024/04/11 10:41:45;;;;;;;5.00;1.60;;;20.90;94.60;;;;;;5346418;26;20230;-72
2024/04/11 10:44:12;;;;;;;3.47;1.10;;;21.00;94.50;;;;;;5357676;26;20280;-74
2024/04/11 10:46:40;;;;;;;2.50;0.90;;;21.10;94.10;;;;;;5347500;26;20265;-74
2024/04/11 10:49:12;;;;;;;1.55;0.93;;;21.10;93.60;;;;;;5357874;26;20246;-73
2024/04/11 10:51:41;;;;;;;4.30;1.23;;;21.10;93.40;;;;;;5346631;26;20289;-73
2024/04/11 10:54:11;;;;;;;2.22;1.38;;;21.10;93.00;;;;;;5355057;26;20562;-73
2024/04/11 10:56:43;;;;;;;4.28;1.60;;;21.10;93.10;;;;;;5346140;26;20239;-73
2024/04/11 10:59:18;;;;;;;3.85;1.27;;;20.90;94.00;;;;;;5344106;26;20231;-73
2024/04/11 11:01:57;;;;;;;2.85;0.90;;;21.00;94.60;;;;;;5345321;26;20234;-73
2024/04/11 11:04:25;;;;;;;5.10;1.38;;;21.00;94.40;;;;;;5343396;26;20238;-73
2024/04/11 11:06:51;;;;;;;4.32;1.55;;;20.70;94.00;;;;;;5344654;26;20310;-72
2024/04/11 11:09:18;;;;;;;3.05;1.20;;;20.80;94.20;;;;;;5355475;26;20227;-73
2024/04/11 11:11:45;;;;;;;2.85;1.00;;;21.00;94.30;;;;;;5364216;26;20282;-73
2024/04/11 11:14:17;;;;;;;3.67;1.23;;;21.10;94.80;;;;;;5348887;26;20235;-73
2024/04/11 11:16:44;;;;;;;3.22;1.20;;;21.00;93.60;;;;;;5347985;26;20231;-72
2024/04/11 11:19:13;;;;;;;5.00;0.90;;;20.90;94.30;;;;;;5346592;26;20307;-72
2024/04/11 11:21:42;;;;;;;5.60;1.20;;;21.00;94.10;;;;;;5346173;26;20729;-73
2024/04/11 11:24:13;;;;;;;1.40;0.93;;;21.00;93.50;;;;;;5346706;26;20239;-73
2024/04/11 11:26:43;;;;;;;3.75;1.33;;;21.10;93.30;;;;;;5347455;26;20243;-72
2024/04/11 11:29:11;;;;;;;2.58;1.50;;;21.20;93.60;;;;;;5347112;26;20715;-72
2024/04/11 11:31:37;;;;;;;6.90;1.65;;;20.60;93.00;;;;;;5347166;26;20793;-72
2024/04/11 11:34:09;;;;;;;6.07;2.00;;;19.70;94.40;;;;;;5345184;26;20238;-73
2024/04/11 11:36:44;;;;;;;2.92;1.50;;;19.40;96.00;;;;;;5345083;26;20247;-73
2024/04/11 11:39:25;;;;;;;4.82;1.60;;;19.50;96.20;;;;;;5344568;26;20273;-73
2024/04/11 11:42:00;;;;;;;4.53;1.30;;;19.50;95.60;;;;;;5345178;26;20347;-72
2024/04/11 11:44:40;;;;;;;4.30;1.30;;;19.30;96.50;;;;;;5343522;26;20238;-73
2024/04/11 11:47:06;;;;;;;4.07;1.52;;;19.60;96.90;;;;;;5333977;26;20285;-74
2024/04/11 11:49:37;;;;;;;4.57;1.77;;;20.00;96.40;;;;;;5345220;26;20246;-72
2024/04/11 11:52:03;;;;;;;3.85;1.25;;;20.30;96.20;;;;;;5359190;26;20239;-73
2024/04/11 11:54:34;;;;;;;4.88;1.95;;;20.60;95.60;;;;;;5343638;26;20235;-73
2024/04/11 11:57:09;;;;;;;3.72;1.60;;;20.70;95.10;;;;;;5346525;26;20705;-73
2024/04/11 11:59:36;;;;;;;6.18;1.58;;;20.90;94.70;;;;;;5347673;26;20297;-72
2024/04/11 12:02:04;;;;;;;5.72;1.70;;;20.90;94.90;;;;;;5362275;26;20722;-72
2024/04/11 12:04:30;;;;;;;3.78;2.13;;;20.90;95.60;;;;;;5348859;26;20582;-72
2024/04/11 12:07:00;;;;;;;5.15;2.20;;;21.00;95.60;;;;;;5359130;26;20721;-73
2024/04/11 12:09:31;;;;;;;5.30;2.03;;;20.70;94.30;;;;;;5348202;26;20377;-72
2024/04/11 12:14:42;;;;;;;4.18;1.95;;;20.50;95.50;;;;;;5345747;26;20281;-72
2024/04/11 12:17:10;;;;;;;3.17;1.20;;;20.00;95.20;;;;;;5346222;26;20290;-73
2024/04/11 12:19:36;;;;;;;4.50;1.55;;;19.90;96.60;;;;;;5349257;26;20289;-73
2024/04/11 12:22:15;;;;;;;4.80;1.65;;;20.10;96.70;;;;;;5357491;26;20239;-73
2024/04/11 12:24:42;;;;;;;5.03;1.73;;;20.30;96.40;;;;;;5349396;26;20281;-73
2024/04/11 12:27:08;;;;;;;8.23;1.85;;;20.20;95.40;;;;;;5358186;26;20347;-73
2024/04/11 12:29:33;;;;;;;2.72;1.90;;;19.70;96.80;;;;;;5348586;26;20740;-72
2024/04/11 12:32:03;;;;;;;3.55;2.17;;;19.80;96.60;;;;;;5348501;26;20238;-72
2024/04/11 12:34:32;;;;;;;5.10;1.92;;;19.80;96.50;;;;;;5347013;26;20321;-73
2024/04/11 12:37:08;;;;;;;4.65;2.25;;;19.90;96.80;;;;;;5349037;26;20239;-72
2024/04/11 12:39:41;;;;;;;4.22;1.95;;;20.10;97.00;;;;;;5351027;26;20285;-72
2024/04/11 12:42:07;;;;;;;5.22;1.63;;;20.00;96.70;;;;;;5347044;26;20324;-73
2024/04/11 12:44:36;;;;;;;3.88;1.50;;;20.00;96.90;;;;;;5344985;26;20235;-71
2024/04/11 12:47:14;;;;;;;5.22;1.90;;;20.20;97.30;;;;;;5347710;26;20247;-72
2024/04/11 12:49:49;;;;;;;6.00;1.95;;;20.50;96.60;;;;;;5346102;26;20235;-73
2024/04/11 12:52:22;;;;;;;2.42;1.60;;;19.80;95.20;;;;;;5345559;26;20301;-73
2024/04/11 12:54:49;;;;;;;8.80;2.30;;;19.50;96.50;;;;;;5347192;26;20251;-73
2024/04/11 12:57:17;;;;;;;5.03;1.77;;;19.30;96.40;;;;;;5360501;26;20290;-73
2024/04/11 12:59:46;;;;;;;4.47;2.17;;;19.10;97.20;;;;;;5349165;26;20235;-72